createdAt,value
2018-03-07T00:00:50.242Z,60.70
2018-03-07T00:03:19.062Z,56.17
2018-03-07T00:05:47.483Z,51.33
2018-03-07T00:08:15.814Z,74.53
2018-03-07T00:10:44.176Z,57.27
2018-03-07T00:13:12.534Z,60.67
2018-03-07T00:15:40.962Z,62.30
2018-03-07T00:18:09.460Z,58.67
2018-03-07T00:20:37.839Z,52.20
2018-03-07T00:23:06.161Z,57.53
2018-03-07T00:25:34.751Z,61.70
2018-03-07T00:28:03.342Z,56.10
2018-03-07T00:30:31.710Z,62.20
2018-03-07T00:33:00.085Z,59.20
2018-03-07T00:35:28.476Z,54.67
2018-03-07T00:37:56.944Z,54.07
2018-03-07T00:40:25.344Z,54.90
2018-03-07T00:42:53.796Z,60.87
2018-03-07T00:45:22.136Z,56.63
2018-03-07T00:47:50.462Z,54.80
2018-03-07T00:50:18.850Z,58.47
2018-03-07T00:52:47.171Z,54.27
2018-03-07T00:55:15.579Z,58.17
2018-03-07T00:57:44.286Z,54.17
2018-03-07T01:00:12.622Z,53.33
2018-03-07T01:02:40.966Z,58.63
2018-03-07T01:05:10.244Z,50.97
2018-03-07T01:07:38.607Z,48.33
2018-03-07T01:10:06.942Z,59.67
2018-03-07T01:12:35.416Z,43.67
2018-03-07T01:15:03.769Z,47.23
2018-03-07T01:17:32.117Z,55.10
2018-03-07T01:20:01.401Z,46.03
2018-03-07T01:22:29.743Z,52.00
2018-03-07T01:24:58.125Z,58.43
2018-03-07T01:27:29.931Z,48.70
2018-03-07T01:29:58.715Z,48.83
2018-03-07T01:32:27.342Z,48.03
2018-03-07T01:34:55.838Z,48.83
2018-03-07T01:37:24.264Z,53.83
2018-03-07T01:39:52.572Z,45.40
2018-03-07T01:42:21.066Z,44.97
2018-03-07T01:44:49.772Z,46.23
2018-03-07T01:47:18.530Z,57.17
2018-03-07T01:49:47.089Z,49.60
2018-03-07T01:52:15.438Z,44.80
2018-03-07T01:54:43.780Z,58.97
2018-03-07T01:57:12.126Z,45.30
2018-03-07T01:59:40.957Z,36.37
2018-03-07T02:02:09.295Z,40.83
2018-03-07T02:04:37.670Z,51.23
2018-03-07T02:07:06.024Z,48.10
2018-03-07T02:09:34.369Z,37.23
2018-03-07T02:12:02.884Z,41.70
2018-03-07T02:14:31.558Z,37.00
2018-03-07T02:17:00.016Z,41.40
2018-03-07T02:19:28.458Z,33.37
2018-03-07T02:21:56.885Z,40.90
2018-03-07T02:24:25.273Z,39.37
2018-03-07T02:26:53.596Z,38.00
2018-03-07T02:29:22.203Z,30.57
2018-03-07T02:31:50.560Z,39.40
2018-03-07T02:34:18.916Z,37.70
2018-03-07T02:36:47.479Z,34.73
2018-03-07T02:39:15.826Z,29.50
2018-03-07T02:41:45.239Z,28.27
2018-03-07T02:44:13.604Z,35.77
2018-03-07T02:46:41.929Z,44.63
2018-03-07T02:49:10.269Z,30.43
2018-03-07T02:51:38.676Z,35.10
2018-03-07T02:54:07.053Z,34.90
2018-03-07T02:56:35.406Z,41.00
2018-03-07T02:59:04.115Z,32.07
2018-03-07T03:01:32.472Z,29.50
2018-03-07T03:04:00.828Z,31.13
2018-03-07T03:06:29.180Z,26.77
2018-03-07T03:08:57.530Z,29.17
2018-03-07T03:11:25.943Z,28.60
2018-03-07T03:13:54.292Z,31.20
2018-03-07T03:16:22.635Z,24.50
2018-03-07T03:18:50.953Z,26.30
2018-03-07T03:21:19.281Z,26.17
2018-03-07T03:23:47.620Z,26.43
2018-03-07T03:26:15.970Z,24.90
2018-03-07T03:28:44.413Z,24.40
2018-03-07T03:31:12.744Z,30.20
2018-03-07T03:33:41.070Z,27.07
2018-03-07T03:36:09.444Z,27.37
2018-03-07T03:38:37.759Z,23.13
2018-03-07T03:41:06.072Z,26.90
2018-03-07T03:43:34.407Z,21.53
2018-03-07T03:46:02.761Z,17.50
2018-03-07T03:48:31.186Z,16.47
2018-03-07T03:50:59.549Z,15.77
2018-03-07T03:53:27.892Z,22.73
2018-03-07T03:55:56.234Z,18.27
2018-03-07T03:58:24.594Z,20.20
2018-03-07T04:00:52.943Z,20.93
2018-03-07T04:03:21.271Z,16.67
2018-03-07T04:05:49.616Z,17.53
2018-03-07T04:08:17.966Z,16.80
2018-03-07T04:10:46.302Z,17.50
2018-03-07T04:13:14.658Z,18.47
2018-03-07T04:15:42.979Z,19.27
2018-03-07T04:18:11.310Z,20.70
2018-03-07T04:20:39.650Z,17.93
2018-03-07T04:23:07.974Z,20.57
2018-03-07T04:25:36.356Z,16.17
2018-03-07T04:28:04.687Z,16.10
2018-03-07T04:30:33.014Z,17.90
2018-03-07T04:33:01.374Z,15.03
2018-03-07T04:35:29.761Z,14.83
2018-03-07T04:37:58.192Z,15.87
2018-03-07T04:40:26.524Z,15.07
2018-03-07T04:42:54.922Z,14.03
2018-03-07T04:45:24.066Z,19.43
2018-03-07T04:47:52.376Z,14.20
2018-03-07T04:50:20.747Z,14.60
2018-03-07T04:52:49.056Z,14.93
2018-03-07T04:55:17.380Z,18.23
2018-03-07T04:57:45.719Z,14.77
2018-03-07T05:00:14.073Z,14.23
2018-03-07T05:02:42.478Z,15.30
2018-03-07T05:05:10.736Z,12.00
2018-03-07T05:07:39.069Z,13.80
2018-03-07T05:10:07.405Z,15.83
2018-03-07T05:12:35.716Z,15.30
2018-03-07T05:15:04.045Z,12.33
2018-03-07T05:17:32.493Z,12.77
2018-03-07T05:20:00.909Z,15.27
2018-03-07T05:22:29.305Z,15.23
2018-03-07T05:24:57.655Z,15.37
2018-03-07T05:27:25.971Z,15.43
2018-03-07T05:29:54.316Z,15.67
2018-03-07T05:32:22.666Z,14.67
2018-03-07T05:34:51.011Z,14.10
2018-03-07T05:37:19.352Z,15.57
2018-03-07T05:39:47.701Z,17.10
2018-03-07T05:42:16.055Z,17.40
2018-03-07T05:44:44.505Z,18.10
2018-03-07T05:47:13.285Z,15.07
2018-03-07T05:49:41.680Z,13.90
2018-03-07T05:52:10.025Z,15.10
2018-03-07T05:54:38.448Z,14.10
2018-03-07T05:57:06.870Z,15.57
2018-03-07T05:59:35.256Z,11.73
2018-03-07T06:02:03.576Z,13.53
2018-03-07T06:04:31.958Z,15.03
2018-03-07T06:07:00.374Z,15.00
2018-03-07T06:09:28.691Z,14.33
2018-03-07T06:11:57.089Z,18.63
2018-03-07T06:14:25.735Z,13.90
2018-03-07T06:16:54.048Z,13.50
2018-03-07T06:19:22.425Z,15.27
2018-03-07T06:24:25.549Z,16.30
2018-03-07T06:26:53.886Z,13.23
2018-03-07T06:29:22.222Z,13.90
2018-03-07T06:31:50.569Z,15.07
2018-03-07T06:34:18.880Z,14.53
2018-03-07T06:36:50.750Z,16.27
2018-03-07T06:39:19.432Z,15.43
2018-03-07T06:41:47.787Z,12.67
2018-03-07T06:44:16.135Z,13.03
2018-03-07T06:46:44.452Z,10.50
2018-03-07T06:49:12.848Z,13.60
2018-03-07T06:51:41.160Z,15.60
2018-03-07T06:54:09.767Z,13.50
2018-03-07T06:56:38.125Z,14.40
2018-03-07T06:59:06.497Z,15.37
2018-03-07T07:01:35.026Z,16.93
2018-03-07T07:04:03.348Z,14.23
2018-03-07T07:06:32.321Z,12.87
2018-03-07T07:09:00.799Z,19.50
2018-03-07T07:11:29.159Z,15.70
2018-03-07T07:13:58.076Z,31.83
2018-03-07T07:16:26.637Z,17.17
2018-03-07T07:18:55.028Z,13.23
2018-03-07T07:21:27.325Z,14.97
2018-03-07T07:23:55.666Z,13.43
2018-03-07T07:26:25.414Z,13.37
2018-03-07T07:31:39.207Z,12.17
2018-03-07T07:34:08.388Z,12.10
2018-03-07T07:36:36.717Z,13.03
2018-03-07T07:39:05.096Z,15.23
2018-03-07T07:41:36.868Z,12.23
2018-03-07T07:46:38.966Z,14.93
2018-03-07T07:51:42.573Z,14.60
2018-03-07T07:54:10.955Z,12.10
2018-03-07T07:56:39.390Z,16.97
2018-03-07T07:59:07.774Z,15.75
2018-03-07T08:01:38.060Z,17.17
2018-03-07T08:04:06.386Z,12.63
2018-03-07T08:06:34.761Z,22.40
2018-03-07T08:09:03.123Z,14.43
2018-03-07T08:11:41.256Z,13.70
2018-03-07T08:14:09.584Z,13.30
2018-03-07T08:16:37.969Z,14.85
2018-03-07T08:21:39.046Z,12.83
2018-03-07T08:26:42.282Z,16.50
2018-03-07T08:34:43.494Z,16.13
2018-03-07T08:39:45.027Z,13.97
2018-03-07T08:42:14.761Z,15.30
2018-03-07T08:44:43.077Z,20.13
2018-03-07T08:47:11.469Z,16.57
2018-03-07T08:49:39.824Z,16.60
2018-03-07T08:52:08.329Z,21.43
2018-03-07T08:54:37.566Z,24.67
2018-03-07T08:57:06.087Z,15.97
2018-03-07T08:59:36.038Z,16.37
2018-03-07T09:02:04.390Z,15.93
2018-03-07T09:04:32.872Z,17.00
2018-03-07T09:12:16.194Z,14.93
2018-03-07T09:14:45.199Z,23.87
2018-03-07T09:17:13.654Z,14.10
2018-03-07T09:19:41.977Z,15.77
2018-03-07T09:27:21.388Z,15.10
2018-03-07T09:32:23.250Z,17.90
2018-03-07T09:39:59.281Z,19.07
2018-03-07T09:45:02.030Z,44.40
2018-03-07T09:47:30.352Z,18.63
2018-03-07T09:49:58.915Z,19.87
2018-03-07T09:52:28.269Z,26.00
2018-03-07T09:54:56.641Z,24.13
2018-03-07T09:57:25.839Z,17.17
2018-03-07T09:59:54.542Z,20.48
2018-03-07T10:02:27.496Z,21.40
2018-03-07T10:04:56.898Z,15.33
2018-03-07T10:07:28.090Z,19.80
2018-03-07T10:09:56.557Z,24.40
2018-03-07T10:12:27.175Z,35.13
2018-03-07T10:14:55.749Z,15.00
2018-03-07T10:17:24.102Z,30.13
2018-03-07T10:22:26.106Z,16.50
2018-03-07T10:24:54.705Z,19.80
2018-03-07T10:27:24.675Z,9.73
2018-03-07T10:29:53.713Z,13.67
2018-03-07T10:34:55.414Z,14.80
2018-03-07T10:37:23.826Z,13.10
2018-03-07T10:39:52.239Z,13.77
2018-03-07T10:42:20.542Z,10.13
2018-03-07T10:44:48.890Z,18.17
2018-03-07T10:54:57.441Z,12.83
2018-03-07T10:57:25.868Z,20.93
2018-03-07T11:07:39.377Z,19.40
2018-03-07T11:10:10.383Z,10.80
2018-03-07T11:12:38.734Z,17.40
2018-03-07T11:15:28.583Z,7.20
2018-03-07T11:17:56.946Z,20.37
2018-03-07T11:23:07.658Z,10.50
2018-03-07T11:25:35.984Z,10.93
2018-03-07T11:30:42.893Z,6.47
2018-03-07T11:33:11.436Z,15.93
2018-03-07T11:38:14.958Z,18.17
2018-03-07T11:40:43.277Z,14.63
2018-03-07T11:48:26.896Z,17.13
2018-03-07T11:50:55.260Z,10.53
2018-03-07T11:53:27.766Z,18.57
2018-03-07T11:55:56.120Z,8.20
2018-03-07T11:58:28.156Z,14.13
2018-03-07T12:00:56.866Z,8.10
2018-03-07T12:03:25.187Z,9.23
2018-03-07T12:05:57.578Z,9.63
2018-03-07T12:08:27.716Z,16.50
2018-03-07T12:10:56.114Z,7.00
2018-03-07T12:13:24.452Z,7.57
2018-03-07T12:15:54.163Z,9.57
2018-03-07T12:18:23.255Z,8.03
2018-03-07T12:20:51.615Z,5.77
2018-03-07T12:23:24.831Z,4.57
2018-03-07T12:25:56.390Z,8.90
2018-03-07T12:28:26.780Z,8.60
2018-03-07T12:33:28.895Z,19.20
2018-03-07T12:35:57.472Z,7.40
2018-03-07T12:38:25.861Z,8.27
2018-03-07T12:40:54.519Z,11.50
2018-03-07T12:45:56.184Z,6.47
2018-03-07T12:56:11.536Z,12.93
2018-03-07T13:01:15.571Z,10.23
2018-03-07T13:03:43.928Z,10.40
2018-03-07T13:11:33.155Z,4.97
2018-03-07T13:14:01.544Z,9.23
2018-03-07T13:16:29.893Z,7.33
2018-03-07T13:18:58.202Z,8.50
2018-03-07T13:21:27.304Z,13.10
2018-03-07T13:23:55.769Z,17.73
2018-03-07T13:26:24.303Z,16.13
2018-03-07T13:28:52.655Z,5.60
2018-03-07T13:31:21.204Z,2.70
2018-03-07T13:33:49.560Z,2.60
2018-03-07T13:36:17.860Z,3.83
2018-03-07T13:38:46.830Z,3.33
2018-03-07T13:41:15.573Z,2.50
2018-03-07T13:43:45.547Z,5.47
2018-03-07T13:46:13.923Z,14.53
2018-03-07T13:48:42.248Z,5.33
2018-03-07T13:51:10.701Z,11.80
2018-03-07T13:53:39.195Z,11.10
2018-03-07T13:56:07.567Z,9.23
2018-03-07T13:58:35.930Z,10.87
2018-03-07T14:01:04.294Z,10.53
2018-03-07T14:03:32.637Z,12.33
2018-03-07T14:06:00.991Z,3.80
2018-03-07T14:08:30.580Z,9.50
2018-03-07T14:10:59.339Z,3.80
2018-03-07T14:13:29.636Z,6.50
2018-03-07T14:15:58.049Z,6.63
2018-03-07T14:18:26.486Z,28.57
2018-03-07T14:20:54.823Z,12.50
2018-03-07T14:23:23.253Z,8.87
2018-03-07T14:25:52.286Z,11.20
2018-03-07T14:28:20.994Z,6.83
2018-03-07T14:35:55.252Z,9.17
2018-03-07T14:38:24.357Z,10.63
2018-03-07T14:40:52.732Z,19.50
2018-03-07T14:43:21.111Z,8.10
2018-03-07T14:45:52.137Z,15.87
2018-03-07T14:48:20.495Z,15.60
2018-03-07T14:50:49.629Z,13.13
2018-03-07T14:53:17.973Z,19.13
2018-03-07T14:55:48.621Z,6.40
2018-03-07T14:58:16.940Z,7.83
2018-03-07T15:00:45.601Z,4.17
2018-03-07T15:03:13.970Z,10.13
2018-03-07T15:05:45.909Z,4.50
2018-03-07T15:08:14.722Z,3.53
2018-03-07T15:10:43.064Z,3.93
2018-03-07T15:13:13.229Z,10.70
2018-03-07T15:15:41.560Z,8.03
2018-03-07T15:18:09.921Z,2.50
2018-03-07T15:20:38.245Z,9.97
2018-03-07T15:23:06.548Z,13.03
2018-03-07T15:25:35.014Z,14.13
2018-03-07T15:28:03.387Z,6.23
2018-03-07T15:30:32.419Z,2.37
2018-03-07T15:33:00.834Z,10.70
2018-03-07T15:35:29.302Z,4.83
2018-03-07T15:37:57.886Z,3.17
2018-03-07T15:40:26.260Z,9.37
2018-03-07T15:42:54.607Z,4.30
2018-03-07T15:45:22.984Z,8.07
2018-03-07T15:47:51.584Z,7.43
2018-03-07T15:50:19.914Z,4.93
2018-03-07T15:52:48.513Z,2.57
2018-03-07T15:55:18.392Z,3.73
2018-03-07T15:57:46.800Z,4.53
2018-03-07T16:00:15.206Z,3.20
2018-03-07T16:02:43.925Z,2.40
2018-03-07T16:05:13.764Z,4.10
2018-03-07T16:10:14.524Z,5.03
2018-03-07T16:12:42.917Z,2.20
2018-03-07T16:15:11.517Z,5.63
2018-03-07T16:17:39.850Z,10.43
2018-03-07T16:20:08.286Z,9.57
2018-03-07T16:22:36.632Z,4.03
2018-03-07T16:25:05.115Z,8.13
2018-03-07T16:27:33.497Z,6.97
2018-03-07T16:30:01.978Z,8.93
2018-03-07T16:32:32.041Z,7.37
2018-03-07T16:35:00.810Z,9.20
2018-03-07T16:37:35.533Z,7.03
2018-03-07T16:40:04.309Z,8.90
2018-03-07T16:42:32.824Z,1.77
2018-03-07T16:45:02.275Z,4.53
2018-03-07T16:47:30.890Z,3.50
2018-03-07T16:49:59.287Z,2.70
2018-03-07T16:52:28.429Z,8.33
2018-03-07T16:54:57.679Z,2.70
2018-03-07T16:57:26.054Z,8.87
2018-03-07T17:02:27.437Z,2.73
2018-03-07T17:04:55.846Z,21.43
2018-03-07T17:07:24.237Z,26.57
2018-03-07T17:09:52.656Z,7.03
2018-03-07T17:12:20.956Z,10.90
2018-03-07T17:14:49.499Z,9.43
2018-03-07T17:17:18.826Z,4.43
2018-03-07T17:19:47.656Z,8.07
2018-03-07T17:22:15.986Z,6.33
2018-03-07T17:24:44.353Z,3.30
2018-03-07T17:27:12.675Z,3.13
2018-03-07T17:29:41.276Z,6.37
2018-03-07T17:32:11.363Z,2.67
2018-03-07T17:34:40.042Z,4.40
2018-03-07T17:37:08.400Z,7.13
2018-03-07T17:39:36.719Z,3.97
2018-03-07T17:44:38.850Z,4.90
2018-03-07T17:47:07.302Z,4.23
2018-03-07T17:49:36.676Z,5.67
2018-03-07T17:52:05.045Z,15.60
2018-03-07T17:54:33.703Z,4.33
2018-03-07T17:57:02.102Z,3.13
2018-03-07T17:59:32.030Z,8.13
2018-03-07T18:02:00.518Z,3.40
2018-03-07T18:04:28.988Z,4.87
2018-03-07T18:06:57.542Z,2.90
2018-03-07T18:09:26.123Z,6.37
2018-03-07T18:11:54.630Z,13.87
2018-03-07T18:14:23.036Z,4.13
2018-03-07T18:16:52.235Z,2.13
2018-03-07T18:19:20.563Z,7.93
2018-03-07T18:21:48.983Z,3.70
2018-03-07T18:24:17.330Z,6.33
2018-03-07T18:26:45.720Z,4.07
2018-03-07T18:29:19.396Z,7.53
2018-03-07T18:31:47.770Z,5.97
2018-03-07T18:34:16.179Z,3.13
2018-03-07T18:36:44.733Z,5.40
2018-03-07T18:39:13.048Z,3.00
2018-03-07T18:41:41.660Z,7.70
2018-03-07T18:44:10.023Z,4.73
2018-03-07T18:46:38.389Z,4.13
2018-03-07T18:49:06.956Z,3.57
2018-03-07T18:51:35.284Z,3.27
2018-03-07T18:54:03.731Z,4.60
2018-03-07T18:56:32.117Z,5.30
2018-03-07T18:59:00.460Z,7.07
2018-03-07T19:01:29.863Z,5.53
2018-03-07T19:03:58.198Z,4.20
2018-03-07T19:09:26.316Z,4.80
2018-03-07T19:11:54.651Z,12.00
2018-03-07T19:14:22.966Z,2.63
2018-03-07T19:19:24.125Z,5.37
2018-03-07T19:21:52.672Z,6.67
2018-03-07T19:24:21.271Z,8.70
2018-03-07T19:26:49.662Z,5.00
2018-03-07T19:29:18.140Z,4.30
2018-03-07T19:31:47.378Z,2.70
2018-03-07T19:34:15.680Z,4.67
2018-03-07T19:36:44.809Z,3.10
2018-03-07T19:39:13.161Z,2.93
2018-03-07T19:41:41.488Z,2.83
2018-03-07T19:44:09.818Z,2.70
2018-03-07T19:46:38.199Z,4.10
2018-03-07T19:49:06.538Z,3.37
2018-03-07T19:51:34.901Z,2.30
2018-03-07T19:54:03.273Z,3.10
2018-03-07T19:56:31.810Z,4.13
2018-03-07T19:59:00.223Z,6.57
2018-03-07T20:01:28.657Z,7.17
2018-03-07T20:03:57.840Z,4.03
2018-03-07T20:06:26.224Z,7.87
2018-03-07T20:08:54.714Z,2.90
2018-03-07T20:11:23.264Z,2.33
2018-03-07T20:13:51.670Z,3.00
2018-03-07T20:16:20.009Z,1.80
2018-03-07T20:18:48.453Z,4.93
2018-03-07T20:21:16.909Z,1.33
2018-03-07T20:23:45.455Z,5.87
2018-03-07T20:26:13.816Z,4.63
2018-03-07T20:28:42.141Z,2.20
2018-03-07T20:31:10.649Z,2.70
2018-03-07T20:33:39.064Z,3.57
2018-03-07T20:36:07.404Z,2.33
2018-03-07T20:38:35.745Z,2.53
2018-03-07T20:41:04.059Z,2.17
2018-03-07T20:43:32.638Z,2.90
2018-03-07T20:46:00.975Z,4.30
2018-03-07T20:48:29.323Z,4.57
2018-03-07T20:50:58.743Z,3.40
2018-03-07T20:53:27.230Z,1.40
2018-03-07T20:55:55.536Z,3.27
2018-03-07T20:58:25.548Z,6.57
2018-03-07T21:00:53.911Z,31.70
2018-03-07T21:03:22.228Z,53.80
2018-03-07T21:05:50.565Z,7.13
2018-03-07T21:08:23.043Z,3.60
2018-03-07T21:10:54.030Z,7.10
2018-03-07T21:13:22.354Z,2.00
2018-03-07T21:15:51.606Z,2.57
2018-03-07T21:20:54.703Z,2.83
2018-03-07T21:23:23.032Z,2.30
2018-03-07T21:25:51.347Z,1.60
2018-03-07T21:28:19.670Z,3.00
2018-03-07T21:30:48.336Z,4.33
2018-03-07T21:33:16.664Z,2.17
2018-03-07T21:35:45.028Z,2.43
2018-03-07T21:38:13.384Z,2.33
2018-03-07T21:40:41.688Z,4.30
2018-03-07T21:43:10.034Z,3.23
2018-03-07T21:45:38.355Z,2.93
2018-03-07T21:48:07.132Z,1.73
2018-03-07T21:50:35.427Z,2.03
2018-03-07T21:53:03.726Z,7.03
2018-03-07T21:55:32.187Z,4.60
2018-03-07T21:58:00.488Z,2.50
2018-03-07T22:00:28.903Z,2.13
2018-03-07T22:02:57.419Z,1.53
2018-03-07T22:05:25.733Z,3.00
2018-03-07T22:07:54.099Z,2.63
2018-03-07T22:10:22.422Z,3.47
2018-03-07T22:12:51.454Z,1.93
2018-03-07T22:15:19.786Z,6.90
2018-03-07T22:17:48.090Z,3.80
2018-03-07T22:20:16.790Z,4.37
2018-03-07T22:22:45.146Z,3.87
2018-03-07T22:25:14.567Z,2.00
2018-03-07T22:27:42.917Z,2.07
2018-03-07T22:30:11.292Z,2.33
2018-03-07T22:32:39.623Z,1.60
2018-03-07T22:35:07.956Z,1.30
2018-03-07T22:37:36.272Z,3.07
2018-03-07T22:40:04.714Z,1.63
2018-03-07T22:42:33.931Z,3.37
2018-03-07T22:45:02.273Z,3.67
2018-03-07T22:47:30.613Z,2.00
2018-03-07T22:50:02.014Z,1.30
2018-03-07T22:52:30.356Z,2.90
2018-03-07T22:54:58.868Z,1.97
2018-03-07T22:57:27.172Z,1.60
2018-03-07T22:59:56.116Z,6.13
2018-03-07T23:02:24.478Z,1.87
2018-03-07T23:04:52.803Z,2.60
2018-03-07T23:07:21.121Z,1.20
2018-03-07T23:09:49.456Z,3.50
2018-03-07T23:12:19.116Z,2.60
2018-03-07T23:14:47.547Z,1.67
2018-03-07T23:17:15.869Z,2.50
2018-03-07T23:19:44.388Z,2.40
2018-03-07T23:22:12.785Z,1.77
2018-03-07T23:24:41.194Z,3.63
2018-03-07T23:27:10.076Z,1.47
2018-03-07T23:29:38.402Z,2.33
2018-03-07T23:32:06.755Z,3.10
2018-03-07T23:34:35.142Z,1.47
2018-03-07T23:37:03.445Z,1.77
2018-03-07T23:39:31.899Z,3.00
2018-03-07T23:42:00.248Z,8.00
2018-03-07T23:44:28.709Z,1.67
2018-03-07T23:46:57.016Z,1.50
2018-03-07T23:49:25.399Z,3.00
2018-03-07T23:51:53.712Z,2.30
2018-03-07T23:54:22.032Z,2.33
2018-03-07T23:56:50.379Z,1.77
2018-03-07T23:59:18.733Z,1.90
